sensor_id;sensor_type;location;lat;lon;timestamp;temperature;humidity
19880;DHT22;10102;50.828;4.416;2022-12-18T00:01:47;-0.80;99.90
19880;DHT22;10102;50.828;4.416;2022-12-18T00:04:25;-0.80;99.90
19880;DHT22;10102;50.828;4.416;2022-12-18T00:06:51;-0.60;99.90
19880;DHT22;10102;50.828;4.416;2022-12-18T00:09:18;-0.80;99.90
19880;DHT22;10102;50.828;4.416;2022-12-18T00:11:44;-0.60;99.90
19880;DHT22;10102;50.828;4.416;2022-12-18T00:14:12;-0.90;99.90
19880;DHT22;10102;50.828;4.416;2022-12-18T00:16:38;-1.00;99.90
19880;DHT22;10102;50.828;4.416;2022-12-18T00:19:04;-1.20;99.90
19880;DHT22;10102;50.828;4.416;2022-12-18T00:21:31;-1.00;99.90
19880;DHT22;10102;50.828;4.416;2022-12-18T00:23:58;-1.20;99.90
19880;DHT22;10102;50.828;4.416;2022-12-18T00:26:27;-1.20;99.90
19880;DHT22;10102;50.828;4.416;2022-12-18T00:28:53;-1.10;99.90
19880;DHT22;10102;50.828;4.416;2022-12-18T00:31:20;-1.10;99.90
19880;DHT22;10102;50.828;4.416;2022-12-18T00:33:47;-0.80;99.90
19880;DHT22;10102;50.828;4.416;2022-12-18T00:36:18;-0.90;99.90
19880;DHT22;10102;50.828;4.416;2022-12-18T00:38:45;-1.40;99.90
19880;DHT22;10102;50.828;4.416;2022-12-18T00:41:11;-1.00;99.90
19880;DHT22;10102;50.828;4.416;2022-12-18T00:43:38;-0.90;99.90
19880;DHT22;10102;50.828;4.416;2022-12-18T00:46:05;-0.80;99.90
19880;DHT22;10102;50.828;4.416;2022-12-18T00:48:31;0.40;99.90
19880;DHT22;10102;50.828;4.416;2022-12-18T00:50:58;-0.80;99.90
19880;DHT22;10102;50.828;4.416;2022-12-18T00:53:23;-0.90;99.90
19880;DHT22;10102;50.828;4.416;2022-12-18T00:58:16;-1.10;99.90
19880;DHT22;10102;50.828;4.416;2022-12-18T01:00:42;-1.00;99.90
19880;DHT22;10102;50.828;4.416;2022-12-18T01:03:10;-0.80;99.90
19880;DHT22;10102;50.828;4.416;2022-12-18T01:05:40;-0.60;99.90
19880;DHT22;10102;50.828;4.416;2022-12-18T01:08:06;-0.70;99.90
19880;DHT22;10102;50.828;4.416;2022-12-18T01:10:31;-0.80;99.90
19880;DHT22;10102;50.828;4.416;2022-12-18T01:12:57;-1.20;99.90
19880;DHT22;10102;50.828;4.416;2022-12-18T01:15:23;-1.10;99.90
19880;DHT22;10102;50.828;4.416;2022-12-18T01:17:48;-1.30;99.90
19880;DHT22;10102;50.828;4.416;2022-12-18T01:22:43;-1.10;99.90
19880;DHT22;10102;50.828;4.416;2022-12-18T01:25:09;-0.80;99.90
19880;DHT22;10102;50.828;4.416;2022-12-18T01:27:35;-0.60;99.90
19880;DHT22;10102;50.828;4.416;2022-12-18T01:30:00;-1.00;99.90
19880;DHT22;10102;50.828;4.416;2022-12-18T01:32:28;-1.00;99.90
19880;DHT22;10102;50.828;4.416;2022-12-18T01:34:54;-1.20;99.90
19880;DHT22;10102;50.828;4.416;2022-12-18T01:37:20;-1.00;99.90
19880;DHT22;10102;50.828;4.416;2022-12-18T01:39:45;-1.10;99.90
19880;DHT22;10102;50.828;4.416;2022-12-18T01:42:12;-1.20;99.90
19880;DHT22;10102;50.828;4.416;2022-12-18T01:45:04;-1.20;99.90
19880;DHT22;10102;50.828;4.416;2022-12-18T01:52:47;-1.40;99.90
19880;DHT22;10102;50.828;4.416;2022-12-18T01:55:17;-1.40;99.90
19880;DHT22;10102;50.828;4.416;2022-12-18T01:57:43;-1.40;99.90
19880;DHT22;10102;50.828;4.416;2022-12-18T02:00:19;-1.40;99.90
19880;DHT22;10102;50.828;4.416;2022-12-18T02:02:46;-1.60;99.90
19880;DHT22;10102;50.828;4.416;2022-12-18T02:05:16;-1.50;99.90
19880;DHT22;10102;50.828;4.416;2022-12-18T02:18:31;-2.00;99.90
19880;DHT22;10102;50.828;4.416;2022-12-18T02:26:30;-2.00;99.90
19880;DHT22;10102;50.828;4.416;2022-12-18T02:29:02;-1.80;99.90
19880;DHT22;10102;50.828;4.416;2022-12-18T02:31:33;-1.80;99.90
19880;DHT22;10102;50.828;4.416;2022-12-18T02:34:04;-1.50;99.90
19880;DHT22;10102;50.828;4.416;2022-12-18T02:36:32;-2.00;99.90
19880;DHT22;10102;50.828;4.416;2022-12-18T02:38:59;-1.90;99.90
19880;DHT22;10102;50.828;4.416;2022-12-18T02:43:57;-1.70;99.90
19880;DHT22;10102;50.828;4.416;2022-12-18T02:46:35;-1.80;99.90
19880;DHT22;10102;50.828;4.416;2022-12-18T02:49:28;-1.70;99.90
19880;DHT22;10102;50.828;4.416;2022-12-18T02:58:17;-2.20;99.90
19880;DHT22;10102;50.828;4.416;2022-12-18T03:06:16;-2.20;99.90
19880;DHT22;10102;50.828;4.416;2022-12-18T03:08:47;-2.30;99.90
19880;DHT22;10102;50.828;4.416;2022-12-18T03:11:14;-2.10;99.90
19880;DHT22;10102;50.828;4.416;2022-12-18T03:13:50;-2.20;99.90
19880;DHT22;10102;50.828;4.416;2022-12-18T03:16:25;-2.00;99.90
19880;DHT22;10102;50.828;4.416;2022-12-18T03:18:58;-2.10;99.90
19880;DHT22;10102;50.828;4.416;2022-12-18T03:21:36;-1.90;99.90
19880;DHT22;10102;50.828;4.416;2022-12-18T03:24:06;-2.00;99.90
19880;DHT22;10102;50.828;4.416;2022-12-18T03:26:35;-1.90;99.90
19880;DHT22;10102;50.828;4.416;2022-12-18T03:29:13;-1.80;99.90
19880;DHT22;10102;50.828;4.416;2022-12-18T03:31:44;-1.80;99.90
19880;DHT22;10102;50.828;4.416;2022-12-18T03:34:16;-1.80;99.90
19880;DHT22;10102;50.828;4.416;2022-12-18T03:36:43;-2.20;99.90
19880;DHT22;10102;50.828;4.416;2022-12-18T03:41:51;-2.40;99.90
19880;DHT22;10102;50.828;4.416;2022-12-18T03:44:27;-2.20;99.90
19880;DHT22;10102;50.828;4.416;2022-12-18T03:49:49;-2.10;99.90
19880;DHT22;10102;50.828;4.416;2022-12-18T03:52:22;-2.30;99.90
19880;DHT22;10102;50.828;4.416;2022-12-18T03:54:51;-2.20;99.90
19880;DHT22;10102;50.828;4.416;2022-12-18T03:57:24;-2.10;99.90
19880;DHT22;10102;50.828;4.416;2022-12-18T03:59:57;-2.20;99.90
19880;DHT22;10102;50.828;4.416;2022-12-18T04:02:25;-2.20;99.90
19880;DHT22;10102;50.828;4.416;2022-12-18T04:04:53;-2.20;99.90
19880;DHT22;10102;50.828;4.416;2022-12-18T04:07:20;-2.10;99.90
19880;DHT22;10102;50.828;4.416;2022-12-18T04:09:48;-1.90;99.90
19880;DHT22;10102;50.828;4.416;2022-12-18T04:12:14;-1.90;99.90
19880;DHT22;10102;50.828;4.416;2022-12-18T04:14:43;-2.50;99.90
19880;DHT22;10102;50.828;4.416;2022-12-18T04:17:09;-2.50;99.90
19880;DHT22;10102;50.828;4.416;2022-12-18T04:22:00;-2.60;99.90
19880;DHT22;10102;50.828;4.416;2022-12-18T04:24:26;-2.60;99.90
19880;DHT22;10102;50.828;4.416;2022-12-18T04:26:52;-2.50;99.90
19880;DHT22;10102;50.828;4.416;2022-12-18T04:29:17;-2.80;99.90
19880;DHT22;10102;50.828;4.416;2022-12-18T04:31:43;-2.30;99.90
19880;DHT22;10102;50.828;4.416;2022-12-18T04:34:09;-2.60;99.90
19880;DHT22;10102;50.828;4.416;2022-12-18T04:36:35;-2.80;99.90
19880;DHT22;10102;50.828;4.416;2022-12-18T04:39:00;-2.90;99.90
19880;DHT22;10102;50.828;4.416;2022-12-18T04:41:26;-3.00;99.90
19880;DHT22;10102;50.828;4.416;2022-12-18T04:43:52;-2.70;99.90
19880;DHT22;10102;50.828;4.416;2022-12-18T04:46:18;-2.70;99.90
19880;DHT22;10102;50.828;4.416;2022-12-18T04:48:45;-2.80;99.90
19880;DHT22;10102;50.828;4.416;2022-12-18T04:51:12;-2.70;99.90
19880;DHT22;10102;50.828;4.416;2022-12-18T04:53:38;-2.60;99.90
19880;DHT22;10102;50.828;4.416;2022-12-18T04:56:05;-2.70;99.90
19880;DHT22;10102;50.828;4.416;2022-12-18T04:58:31;-2.70;99.90
19880;DHT22;10102;50.828;4.416;2022-12-18T05:00:57;-2.50;99.90
19880;DHT22;10102;50.828;4.416;2022-12-18T05:03:23;-2.70;99.90
19880;DHT22;10102;50.828;4.416;2022-12-18T05:05:52;-2.10;99.90
19880;DHT22;10102;50.828;4.416;2022-12-18T05:08:18;-2.50;99.90
19880;DHT22;10102;50.828;4.416;2022-12-18T05:10:44;-2.80;99.90
19880;DHT22;10102;50.828;4.416;2022-12-18T05:13:10;-3.00;99.90
19880;DHT22;10102;50.828;4.416;2022-12-18T05:15:36;-2.90;99.90
19880;DHT22;10102;50.828;4.416;2022-12-18T05:25:22;-3.70;99.90
19880;DHT22;10102;50.828;4.416;2022-12-18T05:27:48;-3.50;99.90
19880;DHT22;10102;50.828;4.416;2022-12-18T05:30:14;-3.20;99.90
19880;DHT22;10102;50.828;4.416;2022-12-18T05:32:41;-2.90;99.90
19880;DHT22;10102;50.828;4.416;2022-12-18T05:35:08;-3.00;99.90
19880;DHT22;10102;50.828;4.416;2022-12-18T05:40:01;-2.50;99.90
19880;DHT22;10102;50.828;4.416;2022-12-18T05:42:27;-2.60;99.90
19880;DHT22;10102;50.828;4.416;2022-12-18T05:44:52;-2.50;99.90
19880;DHT22;10102;50.828;4.416;2022-12-18T05:47:18;-2.60;99.90
19880;DHT22;10102;50.828;4.416;2022-12-18T05:49:44;-2.60;99.90
19880;DHT22;10102;50.828;4.416;2022-12-18T05:52:09;-2.50;99.90
19880;DHT22;10102;50.828;4.416;2022-12-18T05:54:35;-3.20;99.90
19880;DHT22;10102;50.828;4.416;2022-12-18T05:57:01;-3.00;99.90
19880;DHT22;10102;50.828;4.416;2022-12-18T05:59:26;-3.00;99.90
19880;DHT22;10102;50.828;4.416;2022-12-18T06:01:52;-3.00;99.90
19880;DHT22;10102;50.828;4.416;2022-12-18T06:04:17;-3.00;99.90
19880;DHT22;10102;50.828;4.416;2022-12-18T06:06:43;-3.00;99.90
19880;DHT22;10102;50.828;4.416;2022-12-18T06:09:09;-3.30;99.90
19880;DHT22;10102;50.828;4.416;2022-12-18T06:11:38;-3.30;99.90
19880;DHT22;10102;50.828;4.416;2022-12-18T06:14:05;-3.10;99.90
19880;DHT22;10102;50.828;4.416;2022-12-18T06:16:31;-2.80;99.90
19880;DHT22;10102;50.828;4.416;2022-12-18T06:19:02;-2.70;99.90
19880;DHT22;10102;50.828;4.416;2022-12-18T06:21:28;-2.50;99.90
19880;DHT22;10102;50.828;4.416;2022-12-18T06:23:54;-2.40;99.90
19880;DHT22;10102;50.828;4.416;2022-12-18T06:26:20;-2.40;99.90
19880;DHT22;10102;50.828;4.416;2022-12-18T06:33:39;-2.50;99.90
19880;DHT22;10102;50.828;4.416;2022-12-18T06:36:10;-2.40;99.90
19880;DHT22;10102;50.828;4.416;2022-12-18T06:38:37;-2.50;99.90
19880;DHT22;10102;50.828;4.416;2022-12-18T06:41:15;-2.50;99.90
19880;DHT22;10102;50.828;4.416;2022-12-18T06:43:41;-2.70;99.90
19880;DHT22;10102;50.828;4.416;2022-12-18T06:46:07;-1.40;99.90
19880;DHT22;10102;50.828;4.416;2022-12-18T06:48:33;-2.40;99.90
19880;DHT22;10102;50.828;4.416;2022-12-18T06:50:59;-2.40;99.90
19880;DHT22;10102;50.828;4.416;2022-12-18T06:53:25;-2.20;99.90
19880;DHT22;10102;50.828;4.416;2022-12-18T06:55:51;-2.20;99.90
19880;DHT22;10102;50.828;4.416;2022-12-18T06:58:17;-2.40;99.90
19880;DHT22;10102;50.828;4.416;2022-12-18T07:00:42;-2.40;99.90
19880;DHT22;10102;50.828;4.416;2022-12-18T07:03:08;-2.30;99.90
19880;DHT22;10102;50.828;4.416;2022-12-18T07:05:34;-2.50;99.90
19880;DHT22;10102;50.828;4.416;2022-12-18T07:08:04;-2.40;99.90
19880;DHT22;10102;50.828;4.416;2022-12-18T07:10:30;-2.30;99.90
19880;DHT22;10102;50.828;4.416;2022-12-18T07:12:56;-2.30;99.90
19880;DHT22;10102;50.828;4.416;2022-12-18T07:15:21;-2.30;99.90
19880;DHT22;10102;50.828;4.416;2022-12-18T07:17:47;-2.30;99.90
19880;DHT22;10102;50.828;4.416;2022-12-18T07:22:38;-2.10;99.90
19880;DHT22;10102;50.828;4.416;2022-12-18T07:25:05;-2.10;99.90
19880;DHT22;10102;50.828;4.416;2022-12-18T07:27:30;-2.20;99.90
19880;DHT22;10102;50.828;4.416;2022-12-18T07:29:56;-2.00;99.90
19880;DHT22;10102;50.828;4.416;2022-12-18T07:37:14;-2.20;99.90
19880;DHT22;10102;50.828;4.416;2022-12-18T07:39:40;-2.20;99.90
19880;DHT22;10102;50.828;4.416;2022-12-18T07:44:50;-2.30;99.90
19880;DHT22;10102;50.828;4.416;2022-12-18T07:49:42;-2.20;99.90
19880;DHT22;10102;50.828;4.416;2022-12-18T08:00:23;-1.90;99.90
19880;DHT22;10102;50.828;4.416;2022-12-18T08:02:48;-1.90;99.90
19880;DHT22;10102;50.828;4.416;2022-12-18T08:10:06;-1.60;99.90
19880;DHT22;10102;50.828;4.416;2022-12-18T08:14:58;-1.50;99.90
19880;DHT22;10102;50.828;4.416;2022-12-18T08:17:24;-1.50;99.90
19880;DHT22;10102;50.828;4.416;2022-12-18T08:22:17;-1.20;99.90
19880;DHT22;10102;50.828;4.416;2022-12-18T08:24:42;-0.90;99.90
19880;DHT22;10102;50.828;4.416;2022-12-18T08:27:08;-1.00;99.90
19880;DHT22;10102;50.828;4.416;2022-12-18T08:29:33;-0.90;99.90
19880;DHT22;10102;50.828;4.416;2022-12-18T08:31:59;-0.90;99.90
19880;DHT22;10102;50.828;4.416;2022-12-18T08:34:25;-0.80;99.90
19880;DHT22;10102;50.828;4.416;2022-12-18T08:39:16;-0.70;99.90
19880;DHT22;10102;50.828;4.416;2022-12-18T08:41:43;-0.60;99.90
19880;DHT22;10102;50.828;4.416;2022-12-18T08:44:29;-0.60;99.90
19880;DHT22;10102;50.828;4.416;2022-12-18T08:49:29;-0.60;99.90
19880;DHT22;10102;50.828;4.416;2022-12-18T08:51:56;-0.60;99.90
19880;DHT22;10102;50.828;4.416;2022-12-18T08:54:24;-0.40;99.90
19880;DHT22;10102;50.828;4.416;2022-12-18T08:56:50;-0.40;99.90
19880;DHT22;10102;50.828;4.416;2022-12-18T08:59:17;-0.40;99.90
19880;DHT22;10102;50.828;4.416;2022-12-18T09:01:43;0.10;99.90
19880;DHT22;10102;50.828;4.416;2022-12-18T09:04:10;-0.70;99.90
19880;DHT22;10102;50.828;4.416;2022-12-18T09:06:36;-0.10;99.90
19880;DHT22;10102;50.828;4.416;2022-12-18T09:09:03;0.00;99.90
19880;DHT22;10102;50.828;4.416;2022-12-18T09:11:29;0.20;99.90
19880;DHT22;10102;50.828;4.416;2022-12-18T09:13:55;0.20;99.90
19880;DHT22;10102;50.828;4.416;2022-12-18T09:16:22;0.30;99.90
19880;DHT22;10102;50.828;4.416;2022-12-18T09:21:18;0.30;99.90
19880;DHT22;10102;50.828;4.416;2022-12-18T09:23:52;0.50;99.90
19880;DHT22;10102;50.828;4.416;2022-12-18T09:26:18;0.10;99.90
19880;DHT22;10102;50.828;4.416;2022-12-18T09:31:11;0.60;99.90
19880;DHT22;10102;50.828;4.416;2022-12-18T09:33:37;0.70;99.90
19880;DHT22;10102;50.828;4.416;2022-12-18T09:36:05;0.50;99.90
19880;DHT22;10102;50.828;4.416;2022-12-18T09:38:32;0.20;99.90
19880;DHT22;10102;50.828;4.416;2022-12-18T09:44:11;0.70;99.90
19880;DHT22;10102;50.828;4.416;2022-12-18T09:46:45;0.60;99.90
19880;DHT22;10102;50.828;4.416;2022-12-18T09:49:14;1.00;99.90
19880;DHT22;10102;50.828;4.416;2022-12-18T09:51:57;0.90;99.90
19880;DHT22;10102;50.828;4.416;2022-12-18T09:54:35;1.00;99.90
19880;DHT22;10102;50.828;4.416;2022-12-18T09:57:01;1.10;99.90
19880;DHT22;10102;50.828;4.416;2022-12-18T09:59:38;1.00;99.90
19880;DHT22;10102;50.828;4.416;2022-12-18T10:02:20;1.30;99.90
19880;DHT22;10102;50.828;4.416;2022-12-18T10:05:00;1.30;99.90
19880;DHT22;10102;50.828;4.416;2022-12-18T10:10:23;1.20;99.90
19880;DHT22;10102;50.828;4.416;2022-12-18T10:13:16;1.10;99.90
19880;DHT22;10102;50.828;4.416;2022-12-18T10:21:21;1.60;99.90
19880;DHT22;10102;50.828;4.416;2022-12-18T10:28:42;1.60;99.90
19880;DHT22;10102;50.828;4.416;2022-12-18T10:31:21;1.70;99.90
19880;DHT22;10102;50.828;4.416;2022-12-18T10:33:47;1.70;99.90
19880;DHT22;10102;50.828;4.416;2022-12-18T10:36:13;2.30;99.90
19880;DHT22;10102;50.828;4.416;2022-12-18T10:38:39;1.80;99.90
19880;DHT22;10102;50.828;4.416;2022-12-18T10:43:44;1.70;99.90
19880;DHT22;10102;50.828;4.416;2022-12-18T10:54:13;1.80;99.90
19880;DHT22;10102;50.828;4.416;2022-12-18T10:59:08;1.80;99.90
19880;DHT22;10102;50.828;4.416;2022-12-18T11:01:52;2.00;99.90
19880;DHT22;10102;50.828;4.416;2022-12-18T11:04:25;2.00;99.90
19880;DHT22;10102;50.828;4.416;2022-12-18T11:07:02;2.10;99.90
19880;DHT22;10102;50.828;4.416;2022-12-18T11:09:30;2.20;99.90
19880;DHT22;10102;50.828;4.416;2022-12-18T11:11:59;2.20;99.90
19880;DHT22;10102;50.828;4.416;2022-12-18T11:14:31;2.20;99.90
19880;DHT22;10102;50.828;4.416;2022-12-18T11:16:59;2.70;99.90
19880;DHT22;10102;50.828;4.416;2022-12-18T11:21:51;2.40;99.90
19880;DHT22;10102;50.828;4.416;2022-12-18T11:24:24;2.60;99.90
19880;DHT22;10102;50.828;4.416;2022-12-18T11:26:51;2.50;99.90
19880;DHT22;10102;50.828;4.416;2022-12-18T11:29:20;2.60;99.90
19880;DHT22;10102;50.828;4.416;2022-12-18T11:31:48;2.60;99.90
19880;DHT22;10102;50.828;4.416;2022-12-18T11:34:24;2.80;99.90
19880;DHT22;10102;50.828;4.416;2022-12-18T11:36:52;2.80;99.90
19880;DHT22;10102;50.828;4.416;2022-12-18T11:39:31;2.80;99.90
19880;DHT22;10102;50.828;4.416;2022-12-18T11:42:28;3.00;99.90
19880;DHT22;10102;50.828;4.416;2022-12-18T11:48:03;2.60;99.90
19880;DHT22;10102;50.828;4.416;2022-12-18T11:50:40;3.00;99.90
19880;DHT22;10102;50.828;4.416;2022-12-18T11:53:10;3.30;99.90
19880;DHT22;10102;50.828;4.416;2022-12-18T12:09:37;2.80;99.90
19880;DHT22;10102;50.828;4.416;2022-12-18T12:33:51;3.10;99.90
19880;DHT22;10102;50.828;4.416;2022-12-18T12:39:10;3.00;99.90
19880;DHT22;10102;50.828;4.416;2022-12-18T12:41:39;3.20;99.90
19880;DHT22;10102;50.828;4.416;2022-12-18T12:44:29;3.30;99.90
19880;DHT22;10102;50.828;4.416;2022-12-18T12:47:00;3.70;99.90
19880;DHT22;10102;50.828;4.416;2022-12-18T12:49:30;3.60;99.90
19880;DHT22;10102;50.828;4.416;2022-12-18T12:52:12;3.40;99.90
19880;DHT22;10102;50.828;4.416;2022-12-18T12:54:40;3.40;99.90
19880;DHT22;10102;50.828;4.416;2022-12-18T12:59:48;3.50;99.90
19880;DHT22;10102;50.828;4.416;2022-12-18T13:02:22;3.50;99.90
19880;DHT22;10102;50.828;4.416;2022-12-18T13:05:01;3.20;99.90
19880;DHT22;10102;50.828;4.416;2022-12-18T13:07:41;3.50;99.90
19880;DHT22;10102;50.828;4.416;2022-12-18T13:10:22;3.30;99.90
19880;DHT22;10102;50.828;4.416;2022-12-18T13:13:00;3.50;99.90
19880;DHT22;10102;50.828;4.416;2022-12-18T13:18:20;3.60;99.90
19880;DHT22;10102;50.828;4.416;2022-12-18T13:25:56;3.50;99.90
19880;DHT22;10102;50.828;4.416;2022-12-18T13:34:17;3.40;99.90
19880;DHT22;10102;50.828;4.416;2022-12-18T13:39:33;3.10;99.90
19880;DHT22;10102;50.828;4.416;2022-12-18T13:44:39;2.90;99.90
19880;DHT22;10102;50.828;4.416;2022-12-18T13:47:33;3.00;99.90
19880;DHT22;10102;50.828;4.416;2022-12-18T13:50:00;3.00;99.90
19880;DHT22;10102;50.828;4.416;2022-12-18T13:52:28;3.10;99.90
19880;DHT22;10102;50.828;4.416;2022-12-18T13:54:59;3.50;99.90
19880;DHT22;10102;50.828;4.416;2022-12-18T13:59:53;3.50;99.90
19880;DHT22;10102;50.828;4.416;2022-12-18T14:02:25;3.20;99.90
19880;DHT22;10102;50.828;4.416;2022-12-18T14:04:52;3.20;99.90
19880;DHT22;10102;50.828;4.416;2022-12-18T14:07:29;3.10;99.90
19880;DHT22;10102;50.828;4.416;2022-12-18T14:09:58;3.00;99.90
19880;DHT22;10102;50.828;4.416;2022-12-18T14:12:31;3.10;99.90
19880;DHT22;10102;50.828;4.416;2022-12-18T14:18:22;2.90;99.90
19880;DHT22;10102;50.828;4.416;2022-12-18T14:20:50;3.00;99.90
19880;DHT22;10102;50.828;4.416;2022-12-18T14:23:39;2.90;99.90
19880;DHT22;10102;50.828;4.416;2022-12-18T14:26:38;2.90;99.90
19880;DHT22;10102;50.828;4.416;2022-12-18T14:29:30;2.90;99.90
19880;DHT22;10102;50.828;4.416;2022-12-18T14:32:13;2.90;99.90
19880;DHT22;10102;50.828;4.416;2022-12-18T14:34:41;3.00;99.90
19880;DHT22;10102;50.828;4.416;2022-12-18T14:37:10;3.00;99.90
19880;DHT22;10102;50.828;4.416;2022-12-18T14:39:36;2.90;99.90
19880;DHT22;10102;50.828;4.416;2022-12-18T14:42:02;2.80;99.90
19880;DHT22;10102;50.828;4.416;2022-12-18T14:44:27;2.90;99.90
19880;DHT22;10102;50.828;4.416;2022-12-18T14:46:53;2.70;99.90
19880;DHT22;10102;50.828;4.416;2022-12-18T14:51:53;2.80;99.90
19880;DHT22;10102;50.828;4.416;2022-12-18T14:54:20;2.90;99.90
19880;DHT22;10102;50.828;4.416;2022-12-18T14:56:49;1.50;99.90
19880;DHT22;10102;50.828;4.416;2022-12-18T14:59:20;2.80;99.90
19880;DHT22;10102;50.828;4.416;2022-12-18T15:01:58;2.90;99.90
19880;DHT22;10102;50.828;4.416;2022-12-18T15:04:36;3.00;99.90
19880;DHT22;10102;50.828;4.416;2022-12-18T15:09:46;3.00;99.90
19880;DHT22;10102;50.828;4.416;2022-12-18T15:12:49;3.30;99.90
19880;DHT22;10102;50.828;4.416;2022-12-18T15:18:03;2.90;99.90
19880;DHT22;10102;50.828;4.416;2022-12-18T15:20:33;2.90;99.90
19880;DHT22;10102;50.828;4.416;2022-12-18T15:23:11;3.00;99.90
19880;DHT22;10102;50.828;4.416;2022-12-18T15:25:37;2.80;99.90
19880;DHT22;10102;50.828;4.416;2022-12-18T15:28:21;2.70;99.90
19880;DHT22;10102;50.828;4.416;2022-12-18T15:33:40;2.80;99.90
19880;DHT22;10102;50.828;4.416;2022-12-18T15:36:13;2.70;99.90
19880;DHT22;10102;50.828;4.416;2022-12-18T15:38:39;2.50;99.90
19880;DHT22;10102;50.828;4.416;2022-12-18T15:41:05;2.80;99.90
19880;DHT22;10102;50.828;4.416;2022-12-18T15:43:37;2.50;99.90
19880;DHT22;10102;50.828;4.416;2022-12-18T15:46:05;2.60;99.90
19880;DHT22;10102;50.828;4.416;2022-12-18T15:48:38;2.70;99.90
19880;DHT22;10102;50.828;4.416;2022-12-18T15:51:07;2.50;99.90
19880;DHT22;10102;50.828;4.416;2022-12-18T15:53:34;2.50;99.90
19880;DHT22;10102;50.828;4.416;2022-12-18T15:56:00;2.80;99.90
19880;DHT22;10102;50.828;4.416;2022-12-18T15:58:44;2.70;99.90
19880;DHT22;10102;50.828;4.416;2022-12-18T16:01:10;2.60;99.90
19880;DHT22;10102;50.828;4.416;2022-12-18T16:03:36;2.50;99.90
19880;DHT22;10102;50.828;4.416;2022-12-18T16:06:02;2.60;99.90
19880;DHT22;10102;50.828;4.416;2022-12-18T16:08:29;2.60;99.90
19880;DHT22;10102;50.828;4.416;2022-12-18T16:10:56;2.50;99.90
19880;DHT22;10102;50.828;4.416;2022-12-18T16:13:22;2.50;99.90
19880;DHT22;10102;50.828;4.416;2022-12-18T16:15:48;2.60;99.90
19880;DHT22;10102;50.828;4.416;2022-12-18T16:18:14;2.70;99.90
19880;DHT22;10102;50.828;4.416;2022-12-18T16:20:41;2.70;99.90
19880;DHT22;10102;50.828;4.416;2022-12-18T16:23:06;2.70;99.90
19880;DHT22;10102;50.828;4.416;2022-12-18T16:25:33;2.60;99.90
19880;DHT22;10102;50.828;4.416;2022-12-18T16:27:59;2.60;99.90
19880;DHT22;10102;50.828;4.416;2022-12-18T16:30:29;2.60;99.90
19880;DHT22;10102;50.828;4.416;2022-12-18T16:32:59;2.70;99.90
19880;DHT22;10102;50.828;4.416;2022-12-18T16:35:25;2.70;99.90
19880;DHT22;10102;50.828;4.416;2022-12-18T16:37:52;2.70;99.90
19880;DHT22;10102;50.828;4.416;2022-12-18T16:40:18;2.70;99.90
19880;DHT22;10102;50.828;4.416;2022-12-18T16:42:45;2.80;99.90
19880;DHT22;10102;50.828;4.416;2022-12-18T16:45:14;2.70;99.90
19880;DHT22;10102;50.828;4.416;2022-12-18T16:47:40;3.90;99.90
19880;DHT22;10102;50.828;4.416;2022-12-18T16:50:06;2.90;99.90
19880;DHT22;10102;50.828;4.416;2022-12-18T16:52:33;2.50;99.90
19880;DHT22;10102;50.828;4.416;2022-12-18T16:54:58;2.80;99.90
19880;DHT22;10102;50.828;4.416;2022-12-18T16:57:24;2.90;99.90
19880;DHT22;10102;50.828;4.416;2022-12-18T17:02:18;3.10;99.90
19880;DHT22;10102;50.828;4.416;2022-12-18T17:04:44;3.30;99.90
19880;DHT22;10102;50.828;4.416;2022-12-18T17:07:11;3.30;99.90
19880;DHT22;10102;50.828;4.416;2022-12-18T17:09:37;3.20;99.90
19880;DHT22;10102;50.828;4.416;2022-12-18T17:12:03;3.40;99.90
19880;DHT22;10102;50.828;4.416;2022-12-18T17:14:29;3.20;99.90
19880;DHT22;10102;50.828;4.416;2022-12-18T17:16:55;3.20;99.90
19880;DHT22;10102;50.828;4.416;2022-12-18T17:19:25;3.20;99.90
19880;DHT22;10102;50.828;4.416;2022-12-18T17:21:51;3.20;99.90
19880;DHT22;10102;50.828;4.416;2022-12-18T17:24:18;3.20;99.90
19880;DHT22;10102;50.828;4.416;2022-12-18T17:26:44;3.10;99.90
19880;DHT22;10102;50.828;4.416;2022-12-18T17:29:15;3.20;99.90
19880;DHT22;10102;50.828;4.416;2022-12-18T17:31:41;3.20;99.90
19880;DHT22;10102;50.828;4.416;2022-12-18T17:34:09;3.10;99.90
19880;DHT22;10102;50.828;4.416;2022-12-18T17:36:35;3.00;99.90
19880;DHT22;10102;50.828;4.416;2022-12-18T17:39:02;3.00;99.90
19880;DHT22;10102;50.828;4.416;2022-12-18T17:41:29;3.00;99.90
19880;DHT22;10102;50.828;4.416;2022-12-18T17:44:02;3.10;99.90
19880;DHT22;10102;50.828;4.416;2022-12-18T17:46:29;3.30;99.90
19880;DHT22;10102;50.828;4.416;2022-12-18T17:48:59;3.40;99.90
19880;DHT22;10102;50.828;4.416;2022-12-18T17:51:26;3.00;99.90
19880;DHT22;10102;50.828;4.416;2022-12-18T17:53:52;2.70;99.90
19880;DHT22;10102;50.828;4.416;2022-12-18T17:56:20;2.80;99.90
19880;DHT22;10102;50.828;4.416;2022-12-18T17:58:46;2.80;99.90
19880;DHT22;10102;50.828;4.416;2022-12-18T18:01:14;3.00;99.90
19880;DHT22;10102;50.828;4.416;2022-12-18T18:03:40;2.80;99.90
19880;DHT22;10102;50.828;4.416;2022-12-18T18:06:06;2.80;99.90
19880;DHT22;10102;50.828;4.416;2022-12-18T18:08:33;3.70;99.90
19880;DHT22;10102;50.828;4.416;2022-12-18T18:11:11;2.80;99.90
19880;DHT22;10102;50.828;4.416;2022-12-18T18:13:57;2.60;99.90
19880;DHT22;10102;50.828;4.416;2022-12-18T18:16:31;2.60;99.90
19880;DHT22;10102;50.828;4.416;2022-12-18T18:18:58;2.50;99.90
19880;DHT22;10102;50.828;4.416;2022-12-18T18:21:24;2.50;99.90
19880;DHT22;10102;50.828;4.416;2022-12-18T18:23:50;2.40;99.90
19880;DHT22;10102;50.828;4.416;2022-12-18T18:26:16;2.50;99.90
19880;DHT22;10102;50.828;4.416;2022-12-18T18:28:41;2.50;99.90
19880;DHT22;10102;50.828;4.416;2022-12-18T18:31:08;2.40;99.90
19880;DHT22;10102;50.828;4.416;2022-12-18T18:33:34;2.50;99.90
19880;DHT22;10102;50.828;4.416;2022-12-18T18:36:00;2.60;99.90
19880;DHT22;10102;50.828;4.416;2022-12-18T18:38:27;2.60;99.90
19880;DHT22;10102;50.828;4.416;2022-12-18T18:41:00;2.60;99.90
19880;DHT22;10102;50.828;4.416;2022-12-18T18:43:27;2.80;99.90
19880;DHT22;10102;50.828;4.416;2022-12-18T18:45:56;2.70;99.90
19880;DHT22;10102;50.828;4.416;2022-12-18T18:48:23;2.70;99.90
19880;DHT22;10102;50.828;4.416;2022-12-18T18:51:00;2.70;99.90
19880;DHT22;10102;50.828;4.416;2022-12-18T18:53:27;2.80;99.90
19880;DHT22;10102;50.828;4.416;2022-12-18T18:55:56;2.50;99.90
19880;DHT22;10102;50.828;4.416;2022-12-18T18:58:21;2.50;99.90
19880;DHT22;10102;50.828;4.416;2022-12-18T19:00:54;2.60;99.90
19880;DHT22;10102;50.828;4.416;2022-12-18T19:03:20;2.50;99.90
19880;DHT22;10102;50.828;4.416;2022-12-18T19:05:50;2.70;99.90
19880;DHT22;10102;50.828;4.416;2022-12-18T19:08:16;2.80;99.90
19880;DHT22;10102;50.828;4.416;2022-12-18T19:10:42;2.80;99.90
19880;DHT22;10102;50.828;4.416;2022-12-18T19:13:11;2.40;99.90
19880;DHT22;10102;50.828;4.416;2022-12-18T19:16:04;2.80;99.90
19880;DHT22;10102;50.828;4.416;2022-12-18T19:18:30;2.80;99.90
19880;DHT22;10102;50.828;4.416;2022-12-18T19:21:01;3.00;99.90
19880;DHT22;10102;50.828;4.416;2022-12-18T19:23:28;2.90;99.90
19880;DHT22;10102;50.828;4.416;2022-12-18T19:26:01;2.70;99.90
19880;DHT22;10102;50.828;4.416;2022-12-18T19:28:27;3.00;99.90
19880;DHT22;10102;50.828;4.416;2022-12-18T19:30:55;3.20;99.90